Terminal Aerodrome Forecast
Issued by NWS Blacksburg, VA

Home | Current Version | Previous Version | Text Only | Print | Product List | Glossary On
Versions: 1 2 3 4 5 6 7 8 9 10 11 12 13 14 15 16 17 18 19 20 21 22 23 24
000
FTUS41 KRNK 221422 AAA
TAFDAN
TAF AMD
KDAN 221422Z 2214/2312 VRB03KT P6SM BKN015
     FM221600 23006KT P6SM SCT025 BKN045
     FM222300 22004KT P6SM VCTS SCT050CB BKN100
     FM230600 23004KT 4SM BR SCT100 BKN250=

USA.gov is the U.S. government's official web portal to all federal, state and local government web resources and services.